Time;durP1;ratioP1;P1;durP2;ratioP2;P2;SDS_P1;SDS_P2;PMS_P1;PMS_P2;Temp;Humidity;BMP_temperature;BMP_pressure;BME280_temperature;BME280_humidity;BME280_pressure;Samples;Min_cycle;Max_cycle;Signal;HPM_P1;HPM_P2
2023/04/07 00:01:44;;;;;;;8.32;2.55;;;6.30;99.90;;;;;;5114088;28;20452;-63
2023/04/07 00:04:11;;;;;;;9.23;3.10;;;6.20;99.90;;;;;;5115650;27;20521;-63
2023/04/07 00:06:39;;;;;;;7.55;3.22;;;6.20;99.90;;;;;;5115910;28;20041;-63
2023/04/07 00:09:06;;;;;;;7.57;2.90;;;6.20;99.90;;;;;;5115627;28;20036;-63
2023/04/07 00:11:32;;;;;;;6.38;2.58;;;6.10;99.90;;;;;;5116154;28;20035;-63
2023/04/07 00:13:59;;;;;;;6.57;2.38;;;6.10;99.90;;;;;;5116176;28;20071;-63
2023/04/07 00:16:26;;;;;;;10.38;2.75;;;6.00;99.90;;;;;;5116390;28;20043;-63
2023/04/07 00:18:53;;;;;;;8.75;2.75;;;6.00;99.90;;;;;;5115718;28;20039;-63
2023/04/07 00:21:19;;;;;;;7.68;2.53;;;6.00;99.90;;;;;;5115845;28;20043;-63
2023/04/07 00:23:46;;;;;;;5.60;2.55;;;6.00;99.90;;;;;;5115961;28;20046;-63
2023/04/07 00:26:13;;;;;;;8.25;2.90;;;6.00;99.90;;;;;;5114696;28;20151;-63
2023/04/07 00:28:42;;;;;;;8.45;2.70;;;6.00;99.90;;;;;;5114355;28;20043;-63
2023/04/07 00:31:09;;;;;;;8.38;2.90;;;6.00;99.90;;;;;;5115760;28;20035;-63
2023/04/07 00:33:36;;;;;;;12.15;2.78;;;6.00;99.90;;;;;;5114400;28;20137;-63
2023/04/07 00:36:03;;;;;;;7.03;2.65;;;6.00;99.90;;;;;;5115768;28;20143;-63
2023/04/07 00:38:30;;;;;;;8.52;3.00;;;6.00;99.90;;;;;;5115596;28;20055;-63
2023/04/07 00:40:56;;;;;;;10.65;3.25;;;6.00;99.90;;;;;;5115279;28;20075;-63
2023/04/07 00:43:24;;;;;;;11.38;3.08;;;6.00;99.90;;;;;;5115449;28;20043;-63
2023/04/07 00:45:51;;;;;;;8.38;3.38;;;6.00;99.90;;;;;;5114474;28;20363;-63
2023/04/07 00:48:18;;;;;;;10.23;3.53;;;6.00;99.90;;;;;;5115097;28;20044;-63
2023/04/07 00:50:44;;;;;;;8.90;3.00;;;5.90;99.90;;;;;;5113945;28;20105;-63
2023/04/07 00:53:11;;;;;;;8.30;3.20;;;5.90;99.90;;;;;;5115002;28;20047;-63
2023/04/07 00:55:38;;;;;;;6.88;3.22;;;5.90;99.90;;;;;;5113788;28;20044;-63
2023/04/07 00:58:05;;;;;;;8.07;3.20;;;5.90;99.90;;;;;;5113744;28;20048;-62
2023/04/07 01:00:32;;;;;;;8.13;3.17;;;5.90;99.90;;;;;;5114487;28;20067;-62
2023/04/07 01:02:59;;;;;;;8.57;3.00;;;5.90;99.90;;;;;;5115184;28;20035;-63
2023/04/07 01:05:26;;;;;;;8.75;3.00;;;5.80;99.90;;;;;;5112667;28;20130;-62
2023/04/07 01:07:53;;;;;;;10.20;3.53;;;5.80;99.90;;;;;;5113804;28;20042;-63
2023/04/07 01:10:20;;;;;;;10.80;3.42;;;5.80;99.90;;;;;;5114841;28;20048;-63
2023/04/07 01:12:54;;;;;;;13.32;3.78;;;5.80;99.90;;;;;;5113819;28;20402;-63
2023/04/07 01:15:23;;;;;;;9.18;3.25;;;5.80;99.90;;;;;;5113584;28;20057;-63
2023/04/07 01:17:53;;;;;;;8.32;3.38;;;5.80;99.90;;;;;;5113742;28;20390;-63
2023/04/07 01:20:20;;;;;;;11.77;3.78;;;5.80;99.90;;;;;;5114349;28;20119;-63
2023/04/07 01:22:50;;;;;;;12.35;3.13;;;5.80;99.90;;;;;;5114610;28;20032;-64
2023/04/07 01:25:16;;;;;;;8.98;3.78;;;5.80;99.90;;;;;;5114958;28;20050;-63
2023/04/07 01:27:43;;;;;;;7.13;3.10;;;5.70;99.90;;;;;;5102715;28;20028;-63
2023/04/07 01:30:10;;;;;;;7.28;3.15;;;5.70;99.90;;;;;;5093876;28;20048;-63
2023/04/07 01:32:37;;;;;;;9.50;3.17;;;5.70;99.90;;;;;;5094251;28;20113;-63
2023/04/07 01:35:05;;;;;;;11.20;2.83;;;5.70;99.90;;;;;;5092681;28;20048;-63
2023/04/07 01:37:31;;;;;;;7.45;2.60;;;5.70;99.90;;;;;;5092797;28;20044;-63
2023/04/07 01:39:58;;;;;;;13.35;3.47;;;5.60;99.90;;;;;;5093727;28;20044;-63
2023/04/07 01:42:25;;;;;;;9.45;3.03;;;5.60;99.90;;;;;;5092917;28;20079;-62
2023/04/07 01:44:52;;;;;;;9.65;2.63;;;5.60;99.90;;;;;;5094088;28;20097;-63
2023/04/07 01:47:18;;;;;;;8.77;2.50;;;5.60;99.90;;;;;;5091994;28;20040;-63
2023/04/07 01:49:45;;;;;;;10.90;2.50;;;5.60;99.90;;;;;;5093969;28;20040;-63
2023/04/07 01:52:12;;;;;;;8.32;2.47;;;5.60;99.90;;;;;;5093738;28;20036;-64
2023/04/07 01:54:39;;;;;;;7.28;2.50;;;5.60;99.90;;;;;;5092500;28;20074;-64
2023/04/07 01:57:06;;;;;;;13.15;3.20;;;5.50;99.90;;;;;;5093507;28;20042;-64
2023/04/07 01:59:32;;;;;;;11.02;2.70;;;5.50;99.90;;;;;;5092698;28;20040;-63
2023/04/07 02:02:01;;;;;;;8.63;2.80;;;5.50;99.90;;;;;;5092343;28;20062;-63
2023/04/07 02:04:28;;;;;;;7.07;2.50;;;5.50;99.90;;;;;;5092567;28;20475;-64
2023/04/07 02:06:55;;;;;;;6.43;2.40;;;5.50;99.90;;;;;;5093922;28;20082;-63
2023/04/07 02:09:31;;;;;;;9.35;2.42;;;5.50;99.90;;;;;;5092573;28;20063;-63
2023/04/07 02:11:57;;;;;;;10.77;3.00;;;5.50;99.90;;;;;;5093665;28;20044;-63
2023/04/07 02:14:25;;;;;;;9.88;2.85;;;5.50;99.90;;;;;;5092095;28;20471;-63
2023/04/07 02:17:01;;;;;;;7.57;2.67;;;5.40;99.90;;;;;;5095706;28;20491;-63
2023/04/07 02:19:29;;;;;;;8.80;2.50;;;5.40;99.90;;;;;;5096445;28;20233;-63
2023/04/07 02:21:55;;;;;;;7.45;2.40;;;5.30;99.90;;;;;;5096518;28;20097;-63
2023/04/07 02:24:22;;;;;;;8.63;2.53;;;5.30;99.90;;;;;;5095967;28;20513;-63
2023/04/07 02:26:49;;;;;;;11.07;2.80;;;5.30;99.90;;;;;;5096101;28;20428;-63
2023/04/07 02:29:16;;;;;;;9.45;3.00;;;5.30;99.90;;;;;;5097698;28;20140;-62
2023/04/07 02:31:43;;;;;;;11.27;2.47;;;5.30;99.90;;;;;;5096238;28;20536;-63
2023/04/07 02:34:10;;;;;;;7.38;2.42;;;5.20;99.90;;;;;;5096091;28;20471;-63
2023/04/07 02:36:37;;;;;;;9.70;2.85;;;5.20;99.90;;;;;;5097409;28;20055;-63
2023/04/07 02:39:05;;;;;;;8.02;2.60;;;5.20;99.90;;;;;;5111922;28;20043;-63
2023/04/07 02:41:32;;;;;;;5.43;2.42;;;5.20;99.90;;;;;;5117342;28;20063;-64
2023/04/07 02:43:59;;;;;;;9.43;2.97;;;5.20;99.90;;;;;;5116452;28;20052;-64
2023/04/07 02:46:25;;;;;;;5.55;2.55;;;5.20;99.90;;;;;;5117665;27;20082;-63
2023/04/07 02:48:52;;;;;;;8.55;2.88;;;5.20;99.90;;;;;;5117491;28;20044;-63
2023/04/07 02:51:19;;;;;;;9.98;2.50;;;5.10;99.90;;;;;;5116231;28;20123;-64
2023/04/07 02:53:46;;;;;;;6.82;2.33;;;5.10;99.90;;;;;;5117582;28;20039;-64
2023/04/07 02:56:13;;;;;;;8.27;2.90;;;5.10;99.90;;;;;;5117589;28;20047;-64
2023/04/07 02:58:40;;;;;;;9.52;2.50;;;5.10;99.90;;;;;;5116904;28;20054;-64
2023/04/07 03:01:07;;;;;;;12.35;2.80;;;5.10;99.90;;;;;;5117273;28;20039;-64
2023/04/07 03:03:34;;;;;;;9.13;2.58;;;5.10;99.90;;;;;;5117351;28;20428;-64
2023/04/07 03:06:10;;;;;;;8.52;2.70;;;5.00;99.90;;;;;;5117106;28;20040;-67
2023/04/07 03:08:48;;;;;;;7.18;2.42;;;5.00;99.90;;;;;;5116254;28;20229;-63
2023/04/07 03:11:15;;;;;;;8.70;2.70;;;5.00;99.90;;;;;;5116104;28;20071;-63
2023/04/07 03:13:43;;;;;;;11.00;2.88;;;5.00;99.90;;;;;;5115850;28;20425;-64
2023/04/07 03:16:09;;;;;;;6.60;2.65;;;5.00;99.90;;;;;;5115779;28;20051;-63
2023/04/07 03:18:47;;;;;;;5.80;2.20;;;5.00;99.90;;;;;;5115924;28;20040;-63
2023/04/07 03:21:14;;;;;;;8.85;2.28;;;5.00;99.90;;;;;;5115853;28;20048;-63
2023/04/07 03:23:41;;;;;;;8.73;2.53;;;4.90;99.90;;;;;;5115754;28;20036;-64
2023/04/07 03:26:07;;;;;;;8.75;2.80;;;4.90;99.90;;;;;;5116568;28;20049;-63
2023/04/07 03:28:36;;;;;;;10.63;2.45;;;4.90;99.90;;;;;;5114220;28;20040;-63
2023/04/07 03:31:03;;;;;;;8.60;2.38;;;4.90;99.90;;;;;;5115479;28;20082;-63
2023/04/07 03:33:30;;;;;;;5.95;2.63;;;4.90;99.90;;;;;;5117117;28;20043;-63
2023/04/07 03:35:57;;;;;;;6.25;2.47;;;5.00;99.90;;;;;;5116019;28;20035;-63
2023/04/07 03:38:24;;;;;;;6.07;2.55;;;5.00;99.90;;;;;;5116753;28;20043;-63
2023/04/07 03:40:55;;;;;;;7.05;2.60;;;5.10;99.90;;;;;;5115064;28;20470;-63
2023/04/07 03:43:22;;;;;;;7.05;2.28;;;5.20;99.90;;;;;;5116645;28;20166;-63
2023/04/07 03:45:48;;;;;;;6.47;2.40;;;5.30;99.90;;;;;;5116760;28;20040;-63
2023/04/07 03:48:17;;;;;;;7.30;2.22;;;5.30;99.90;;;;;;5114772;28;20058;-63
2023/04/07 03:50:55;;;;;;;9.63;2.65;;;5.40;99.90;;;;;;5115030;28;20082;-64
2023/04/07 03:53:21;;;;;;;7.65;2.40;;;5.50;99.90;;;;;;5116434;28;20051;-64
2023/04/07 03:55:51;;;;;;;8.38;2.28;;;5.50;99.90;;;;;;5115151;28;20040;-63
2023/04/07 03:58:36;;;;;;;7.82;2.03;;;5.60;99.90;;;;;;5115388;28;20071;-63
2023/04/07 04:01:04;;;;;;;7.43;2.47;;;5.60;99.90;;;;;;5116131;28;20032;-63
2023/04/07 04:03:32;;;;;;;7.63;2.42;;;5.60;99.90;;;;;;5114973;28;20431;-64
2023/04/07 04:06:15;;;;;;;8.88;2.00;;;5.70;99.90;;;;;;5114900;28;20047;-63
2023/04/07 04:08:42;;;;;;;7.90;2.15;;;5.70;99.90;;;;;;5114764;28;20047;-64
2023/04/07 04:11:09;;;;;;;5.47;2.05;;;5.70;99.90;;;;;;5114552;28;20063;-64
2023/04/07 04:13:44;;;;;;;8.82;2.50;;;5.60;99.90;;;;;;5116316;28;20448;-64
2023/04/07 04:16:11;;;;;;;6.68;1.80;;;5.60;99.90;;;;;;5114861;28;20047;-64
2023/04/07 04:18:41;;;;;;;7.50;2.20;;;5.60;99.90;;;;;;5114810;28;20105;-64
2023/04/07 04:21:10;;;;;;;7.70;2.20;;;5.60;99.90;;;;;;5114543;28;20042;-64
2023/04/07 04:23:40;;;;;;;9.60;2.58;;;5.60;99.90;;;;;;5114843;28;20046;-63
2023/04/07 04:26:07;;;;;;;8.88;2.55;;;5.60;99.90;;;;;;5114448;28;20443;-63
2023/04/07 04:28:36;;;;;;;8.98;2.35;;;5.60;99.90;;;;;;5114519;28;20537;-65
2023/04/07 04:31:06;;;;;;;6.15;2.30;;;5.60;99.90;;;;;;5114356;28;20402;-64
2023/04/07 04:33:38;;;;;;;8.52;2.60;;;5.50;99.90;;;;;;5101152;28;20055;-64
2023/04/07 04:36:05;;;;;;;9.90;2.63;;;5.50;99.90;;;;;;5094154;28;20132;-64
2023/04/07 04:38:32;;;;;;;7.80;2.30;;;5.50;99.90;;;;;;5093518;28;20040;-64
2023/04/07 04:41:08;;;;;;;10.20;2.95;;;5.40;99.90;;;;;;5093681;28;20107;-64
2023/04/07 04:43:34;;;;;;;11.65;3.22;;;5.40;99.90;;;;;;5094015;28;20040;-63
2023/04/07 04:46:03;;;;;;;6.88;3.13;;;5.40;99.90;;;;;;5093669;28;20518;-63
2023/04/07 04:48:35;;;;;;;7.82;2.78;;;5.40;99.90;;;;;;5094924;28;20501;-63
2023/04/07 04:51:04;;;;;;;13.65;2.58;;;5.40;99.90;;;;;;5095041;28;20090;-63
2023/04/07 04:53:31;;;;;;;7.07;2.58;;;5.30;99.90;;;;;;5095043;28;20483;-64
2023/04/07 04:56:00;;;;;;;7.32;3.10;;;5.30;99.90;;;;;;5093766;28;20055;-63
2023/04/07 04:58:45;;;;;;;9.77;2.83;;;5.20;99.90;;;;;;5093810;28;20039;-64
2023/04/07 05:01:23;;;;;;;7.13;3.38;;;5.10;99.90;;;;;;5093340;28;20222;-64
2023/04/07 05:03:56;;;;;;;10.30;2.70;;;5.10;99.90;;;;;;5093560;28;20093;-64
2023/04/07 05:06:27;;;;;;;7.00;2.95;;;5.10;99.90;;;;;;5077091;28;20046;-64
2023/04/07 05:08:57;;;;;;;8.57;2.78;;;5.00;99.90;;;;;;5093471;28;20046;-64
2023/04/07 05:11:30;;;;;;;9.90;2.92;;;5.00;99.90;;;;;;5093414;28;20048;-64
2023/04/07 05:13:56;;;;;;;12.77;2.92;;;5.00;99.90;;;;;;5093226;28;20040;-64
2023/04/07 05:16:23;;;;;;;10.07;3.03;;;5.00;99.90;;;;;;5092972;28;20105;-64
2023/04/07 05:18:51;;;;;;;7.75;2.70;;;5.00;99.90;;;;;;5093337;28;20532;-64
2023/04/07 05:21:21;;;;;;;9.23;3.20;;;5.00;99.90;;;;;;5093063;28;20040;-64
2023/04/07 05:23:51;;;;;;;6.82;2.80;;;5.00;99.90;;;;;;5092917;28;20052;-63
2023/04/07 05:26:20;;;;;;;10.18;3.22;;;5.00;99.90;;;;;;5076363;28;20040;-62
2023/04/07 05:28:48;;;;;;;12.48;3.20;;;5.00;99.90;;;;;;5093401;28;20390;-63
2023/04/07 05:31:19;;;;;;;13.50;3.22;;;5.00;99.90;;;;;;5092967;28;20452;-64
2023/04/07 05:33:50;;;;;;;12.32;3.15;;;5.00;99.90;;;;;;5101012;28;20147;-63
2023/04/07 05:36:19;;;;;;;11.77;3.90;;;5.00;99.90;;;;;;5113625;28;20048;-64
2023/04/07 05:38:46;;;;;;;8.60;2.83;;;5.00;99.90;;;;;;5113253;28;20493;-63
2023/04/07 05:41:17;;;;;;;12.98;3.00;;;5.00;99.90;;;;;;5113212;28;20043;-62
2023/04/07 05:43:44;;;;;;;12.27;3.33;;;5.00;99.90;;;;;;5113072;28;20042;-62
2023/04/07 05:46:13;;;;;;;10.40;3.25;;;5.10;99.90;;;;;;5113110;28;20050;-62
2023/04/07 05:48:48;;;;;;;7.82;3.13;;;5.10;99.90;;;;;;5112971;28;20062;-63
2023/04/07 05:51:17;;;;;;;10.73;3.25;;;5.20;99.90;;;;;;5112306;28;20133;-63
2023/04/07 05:53:44;;;;;;;10.73;3.20;;;5.20;99.90;;;;;;5112659;28;20101;-63
2023/04/07 05:56:11;;;;;;;9.15;3.03;;;5.30;99.90;;;;;;5112758;28;20126;-63
2023/04/07 05:58:42;;;;;;;9.63;3.50;;;5.40;99.90;;;;;;5113104;28;20364;-63
2023/04/07 06:01:10;;;;;;;10.35;3.38;;;5.40;99.90;;;;;;5112685;28;20040;-63
2023/04/07 06:03:39;;;;;;;10.07;3.08;;;5.40;99.90;;;;;;5114403;27;20389;-63
2023/04/07 06:06:13;;;;;;;7.03;2.80;;;5.50;99.90;;;;;;5114275;28;20480;-63
2023/04/07 06:08:40;;;;;;;9.07;2.90;;;5.50;99.90;;;;;;5112869;28;20044;-63
2023/04/07 06:11:07;;;;;;;7.40;3.35;;;5.60;99.90;;;;;;5112852;28;20044;-64
2023/04/07 06:13:34;;;;;;;11.30;3.22;;;5.70;99.90;;;;;;5112534;28;20481;-63
2023/04/07 06:16:01;;;;;;;12.38;3.13;;;5.70;99.90;;;;;;5112533;28;20082;-63
2023/04/07 06:18:29;;;;;;;8.43;3.08;;;5.70;99.90;;;;;;5114266;28;20051;-62
2023/04/07 06:20:56;;;;;;;9.05;3.00;;;5.70;99.90;;;;;;5112576;28;20489;-64
2023/04/07 06:23:24;;;;;;;8.60;3.22;;;5.70;99.90;;;;;;5112456;28;20485;-64
2023/04/07 06:25:52;;;;;;;7.38;3.00;;;5.60;99.90;;;;;;5114208;28;20110;-65
2023/04/07 06:28:19;;;;;;;8.85;3.05;;;5.60;99.90;;;;;;5112827;28;20051;-63
2023/04/07 06:30:47;;;;;;;11.05;3.08;;;5.60;99.90;;;;;;5112894;28;20044;-63
2023/04/07 06:33:15;;;;;;;7.75;2.63;;;5.50;99.90;;;;;;5112506;28;20050;-64
2023/04/07 06:35:42;;;;;;;10.63;3.40;;;5.50;99.90;;;;;;5113591;28;20044;-64
2023/04/07 06:38:10;;;;;;;7.82;3.28;;;5.50;99.90;;;;;;5112646;28;20055;-65
2023/04/07 06:40:37;;;;;;;10.43;3.10;;;5.50;99.90;;;;;;5112403;28;20046;-64
2023/04/07 06:43:05;;;;;;;9.27;2.88;;;5.50;99.90;;;;;;5113799;28;20040;-64
2023/04/07 06:45:42;;;;;;;8.63;3.50;;;5.50;99.90;;;;;;5112624;28;20501;-64
2023/04/07 06:48:09;;;;;;;11.02;3.58;;;5.40;99.90;;;;;;5113587;28;20122;-64
2023/04/07 06:50:37;;;;;;;11.70;3.53;;;5.40;99.90;;;;;;5113734;28;20419;-64
2023/04/07 06:53:04;;;;;;;14.23;3.30;;;5.50;99.90;;;;;;5112796;28;20077;-64
2023/04/07 06:55:31;;;;;;;10.55;4.18;;;5.50;99.90;;;;;;5113825;28;20076;-64
2023/04/07 06:57:58;;;;;;;7.28;3.22;;;5.50;99.90;;;;;;5112806;28;20100;-64
2023/04/07 07:00:25;;;;;;;10.07;3.17;;;5.60;99.90;;;;;;5113470;28;20044;-64
2023/04/07 07:02:52;;;;;;;9.50;3.40;;;5.60;99.90;;;;;;5115063;28;20039;-64
2023/04/07 07:05:20;;;;;;;9.82;3.88;;;5.60;99.90;;;;;;5117016;28;20043;-64
2023/04/07 07:07:47;;;;;;;8.38;3.90;;;5.60;99.90;;;;;;5115985;28;20039;-64
2023/04/07 07:10:14;;;;;;;11.73;3.38;;;5.70;99.90;;;;;;5117279;28;20038;-64
2023/04/07 07:12:40;;;;;;;13.10;3.92;;;5.70;99.90;;;;;;5117155;28;20118;-64
2023/04/07 07:15:07;;;;;;;9.98;3.90;;;5.70;99.90;;;;;;5116264;28;20043;-65
2023/04/07 07:17:34;;;;;;;9.73;3.70;;;5.80;99.90;;;;;;5117443;28;20031;-64
2023/04/07 07:20:01;;;;;;;10.93;3.65;;;5.80;99.90;;;;;;5116778;28;20044;-64
2023/04/07 07:22:28;;;;;;;10.48;3.58;;;5.90;99.90;;;;;;5117126;28;20042;-64
2023/04/07 07:24:55;;;;;;;9.88;3.42;;;5.90;99.90;;;;;;5117427;28;20355;-64
2023/04/07 07:27:21;;;;;;;9.75;3.60;;;6.00;99.90;;;;;;5117245;28;20064;-64
2023/04/07 07:29:48;;;;;;;11.88;3.63;;;6.00;99.90;;;;;;5115423;28;20466;-64
2023/04/07 07:32:15;;;;;;;13.82;3.85;;;6.00;99.90;;;;;;5117128;28;20455;-64
2023/04/07 07:34:42;;;;;;;9.75;3.80;;;6.10;99.90;;;;;;5116662;28;20047;-64
2023/04/07 07:37:08;;;;;;;10.57;3.45;;;6.10;99.90;;;;;;5097137;28;20067;-64
2023/04/07 07:39:35;;;;;;;12.15;4.32;;;6.20;99.90;;;;;;5096081;28;20089;-64
2023/04/07 07:42:02;;;;;;;8.88;4.10;;;6.20;99.90;;;;;;5096528;28;20082;-64
2023/04/07 07:44:29;;;;;;;12.65;4.35;;;6.30;99.90;;;;;;5096337;28;20048;-64
2023/04/07 07:46:58;;;;;;;14.35;4.38;;;6.30;99.90;;;;;;5095752;28;20040;-64
2023/04/07 07:49:24;;;;;;;13.00;4.07;;;6.40;99.90;;;;;;5095810;28;20439;-64
2023/04/07 07:51:51;;;;;;;10.20;4.15;;;6.50;99.90;;;;;;5096324;28;20428;-64
2023/04/07 07:54:18;;;;;;;11.02;4.25;;;6.50;99.90;;;;;;5096295;28;20048;-64
2023/04/07 07:56:45;;;;;;;12.23;4.60;;;6.60;99.90;;;;;;5096163;28;20048;-64
2023/04/07 07:59:12;;;;;;;8.10;3.90;;;6.60;99.90;;;;;;5096219;28;20139;-64
2023/04/07 08:01:39;;;;;;;11.38;3.90;;;6.70;99.90;;;;;;5096074;28;20087;-64
2023/04/07 08:04:05;;;;;;;8.55;3.65;;;6.70;99.90;;;;;;5096171;28;20386;-64
2023/04/07 08:06:32;;;;;;;13.88;4.50;;;6.80;99.90;;;;;;5094951;28;20040;-64
2023/04/07 08:08:59;;;;;;;13.27;4.25;;;6.80;99.90;;;;;;5096034;28;20036;-63
2023/04/07 08:11:26;;;;;;;14.65;4.38;;;6.90;99.90;;;;;;5095741;28;20471;-64
2023/04/07 08:13:53;;;;;;;11.05;4.25;;;7.00;99.90;;;;;;5095268;28;20036;-64
2023/04/07 08:16:20;;;;;;;13.63;4.10;;;7.00;99.90;;;;;;5094155;28;20596;-64
2023/04/07 08:18:48;;;;;;;11.63;3.88;;;7.10;99.90;;;;;;5095522;28;20123;-64
2023/04/07 08:21:15;;;;;;;11.02;4.03;;;7.10;99.90;;;;;;5095160;28;20485;-64
2023/04/07 08:23:42;;;;;;;12.20;4.32;;;7.20;99.90;;;;;;5095780;28;20043;-64
2023/04/07 08:26:09;;;;;;;15.35;4.18;;;7.30;99.90;;;;;;5095478;28;20054;-63
2023/04/07 08:28:35;;;;;;;17.75;4.47;;;7.30;99.90;;;;;;5077260;28;20093;-64
2023/04/07 08:31:02;;;;;;;13.27;4.32;;;7.40;99.90;;;;;;5095273;28;20082;-63
2023/04/07 08:33:29;;;;;;;10.63;4.45;;;7.50;99.90;;;;;;5095563;28;20044;-64
2023/04/07 08:35:56;;;;;;;8.18;3.85;;;7.50;99.90;;;;;;5102449;28;20035;-63
2023/04/07 08:38:23;;;;;;;13.57;4.05;;;7.60;99.90;;;;;;5115468;28;20044;-63
2023/04/07 08:40:50;;;;;;;11.35;4.03;;;7.70;99.90;;;;;;5115138;28;20040;-64
2023/04/07 08:43:16;;;;;;;15.30;4.07;;;7.70;99.90;;;;;;5115327;28;20043;-64
2023/04/07 08:45:43;;;;;;;11.43;3.83;;;7.80;99.90;;;;;;5115627;28;20433;-64
2023/04/07 08:48:10;;;;;;;10.38;4.22;;;7.90;99.90;;;;;;5115107;28;20048;-65
2023/04/07 08:50:37;;;;;;;21.17;5.35;;;8.00;99.90;;;;;;5115023;28;20040;-63
2023/04/07 08:53:04;;;;;;;11.82;3.58;;;8.00;99.90;;;;;;5115165;28;20043;-63
2023/04/07 08:55:32;;;;;;;13.90;4.00;;;8.10;99.90;;;;;;5114818;28;20040;-63
2023/04/07 08:57:59;;;;;;;11.77;3.88;;;8.20;99.90;;;;;;5114976;28;20071;-63
2023/04/07 09:00:27;;;;;;;11.60;3.90;;;8.20;99.90;;;;;;5114400;28;20039;-63
2023/04/07 09:02:54;;;;;;;9.88;3.53;;;8.30;99.90;;;;;;5113590;28;20039;-63
2023/04/07 09:05:23;;;;;;;8.40;3.00;;;8.40;99.90;;;;;;5113459;28;20442;-63
2023/04/07 09:07:50;;;;;;;10.05;3.83;;;8.50;99.90;;;;;;5113787;28;20047;-63
2023/04/07 09:10:17;;;;;;;8.82;3.92;;;8.60;99.90;;;;;;5113480;28;20040;-63
2023/04/07 09:12:44;;;;;;;9.77;3.00;;;8.70;99.90;;;;;;5113557;28;20537;-63
2023/04/07 09:15:11;;;;;;;8.43;3.67;;;8.70;99.90;;;;;;5113741;28;20108;-63
2023/04/07 09:17:37;;;;;;;12.88;3.30;;;8.80;99.90;;;;;;5115057;28;20092;-63
2023/04/07 09:20:04;;;;;;;6.05;2.72;;;8.80;99.90;;;;;;5113352;28;20053;-63
2023/04/07 09:22:31;;;;;;;10.30;3.28;;;8.80;99.90;;;;;;5114762;28;20050;-63
2023/04/07 09:24:58;;;;;;;11.30;3.88;;;8.80;99.90;;;;;;5112576;28;20075;-63
2023/04/07 09:27:24;;;;;;;9.15;2.78;;;8.80;99.90;;;;;;5114259;28;20080;-63
2023/04/07 09:29:51;;;;;;;10.23;3.65;;;8.90;99.90;;;;;;5114546;28;20466;-63
2023/04/07 09:32:18;;;;;;;7.88;3.03;;;8.90;99.90;;;;;;5114584;28;20081;-63
2023/04/07 09:34:45;;;;;;;9.02;3.20;;;9.00;99.90;;;;;;5109715;28;20082;-62
2023/04/07 09:37:12;;;;;;;10.30;3.17;;;9.10;99.90;;;;;;5092582;28;20429;-62
2023/04/07 09:39:38;;;;;;;7.43;3.17;;;9.10;99.90;;;;;;5095094;28;20082;-62
2023/04/07 09:42:05;;;;;;;6.93;2.70;;;9.20;99.90;;;;;;5114636;28;20393;-62
2023/04/07 09:44:32;;;;;;;6.05;2.65;;;9.30;99.90;;;;;;5114582;28;20036;-63
2023/04/07 09:46:59;;;;;;;9.68;3.10;;;9.40;99.90;;;;;;5113188;28;20055;-62
2023/04/07 09:49:26;;;;;;;9.07;2.78;;;9.30;99.90;;;;;;5114362;28;20071;-62
2023/04/07 09:51:53;;;;;;;8.48;3.10;;;9.40;99.90;;;;;;5114258;28;20063;-62
2023/04/07 09:54:20;;;;;;;5.65;2.90;;;9.40;99.90;;;;;;5096316;28;20048;-62
2023/04/07 09:56:46;;;;;;;10.65;2.90;;;9.50;99.90;;;;;;5093946;28;20044;-62
2023/04/07 09:59:16;;;;;;;8.82;2.72;;;9.70;99.90;;;;;;5098330;28;20481;-62
2023/04/07 10:01:43;;;;;;;5.53;2.55;;;9.90;99.90;;;;;;5112755;28;20039;-62
2023/04/07 10:04:10;;;;;;;8.55;3.10;;;10.00;99.90;;;;;;5109888;28;20457;-62
2023/04/07 10:06:37;;;;;;;10.32;2.88;;;10.10;99.90;;;;;;5093753;28;20494;-63
2023/04/07 10:09:03;;;;;;;7.95;2.30;;;10.20;99.90;;;;;;5095313;28;20119;-63
2023/04/07 10:11:31;;;;;;;6.25;2.40;;;10.30;99.90;;;;;;5113720;28;20057;-63
2023/04/07 10:13:57;;;;;;;10.43;2.63;;;10.40;99.90;;;;;;5113048;28;20118;-62
2023/04/07 10:16:24;;;;;;;7.45;2.58;;;10.50;99.90;;;;;;5113493;28;20482;-63
2023/04/07 10:18:51;;;;;;;10.40;3.95;;;10.60;99.90;;;;;;5113941;28;20122;-62
2023/04/07 10:21:18;;;;;;;10.50;2.80;;;10.70;99.90;;;;;;5113242;28;20035;-63
2023/04/07 10:23:44;;;;;;;8.98;3.05;;;10.70;99.90;;;;;;5113830;28;20082;-62
2023/04/07 10:26:12;;;;;;;7.82;3.42;;;10.60;99.90;;;;;;5100208;28;20040;-62
2023/04/07 10:28:38;;;;;;;9.30;3.05;;;10.70;99.90;;;;;;5092096;28;20078;-62
2023/04/07 10:31:05;;;;;;;12.50;3.42;;;10.60;99.90;;;;;;5092955;28;20505;-62
2023/04/07 10:33:32;;;;;;;9.88;2.95;;;10.60;99.90;;;;;;5093774;28;20047;-62
2023/04/07 10:35:58;;;;;;;7.43;2.58;;;10.70;99.90;;;;;;5093484;28;20040;-63
2023/04/07 10:38:25;;;;;;;9.77;2.80;;;10.70;99.90;;;;;;5096748;28;20044;-63
2023/04/07 10:40:52;;;;;;;9.57;2.50;;;10.80;99.90;;;;;;5097264;28;20409;-63
2023/04/07 10:43:20;;;;;;;5.68;1.70;;;10.80;99.90;;;;;;5101500;28;20114;-63
2023/04/07 10:45:48;;;;;;;5.07;1.60;;;10.80;99.90;;;;;;5117848;27;20050;-62
2023/04/07 10:48:14;;;;;;;7.00;1.60;;;10.70;99.90;;;;;;5117466;28;20047;-62
2023/04/07 10:50:41;;;;;;;5.20;1.48;;;10.70;99.90;;;;;;5116721;28;20474;-63
2023/04/07 10:53:08;;;;;;;5.35;1.55;;;10.70;99.90;;;;;;5117624;28;20170;-63
2023/04/07 10:55:35;;;;;;;2.47;0.80;;;10.70;99.90;;;;;;5116965;28;20044;-62
2023/04/07 10:58:02;;;;;;;4.18;1.00;;;10.80;99.90;;;;;;5116786;28;20131;-62
2023/04/07 11:00:29;;;;;;;4.13;1.00;;;10.80;99.90;;;;;;5116815;28;20374;-62
2023/04/07 11:02:55;;;;;;;4.30;1.00;;;10.80;99.90;;;;;;5116991;28;20440;-63
2023/04/07 11:05:22;;;;;;;3.80;0.95;;;11.00;99.90;;;;;;5116954;28;20038;-62
2023/04/07 11:07:49;;;;;;;3.55;0.90;;;11.10;99.90;;;;;;5116776;27;20036;-62
2023/04/07 11:10:18;;;;;;;2.70;1.20;;;11.20;99.90;;;;;;5117398;28;20115;-62
2023/04/07 11:12:44;;;;;;;3.58;0.90;;;11.30;99.90;;;;;;5107232;28;20055;-63
2023/04/07 11:15:11;;;;;;;4.72;1.05;;;11.30;99.90;;;;;;5095454;28;20093;-64
2023/04/07 11:17:38;;;;;;;1.92;0.80;;;11.20;99.90;;;;;;5095438;28;20453;-63
2023/04/07 11:20:05;;;;;;;3.05;0.90;;;11.20;99.90;;;;;;5096395;28;20097;-64
2023/04/07 11:22:33;;;;;;;3.80;1.20;;;11.30;99.90;;;;;;5096804;28;20090;-63
2023/04/07 11:25:00;;;;;;;2.45;0.88;;;11.50;99.90;;;;;;5097058;28;20063;-63
2023/04/07 11:27:27;;;;;;;3.67;0.95;;;11.50;99.90;;;;;;5096612;28;20044;-63
2023/04/07 11:29:54;;;;;;;2.08;0.70;;;11.50;99.90;;;;;;5096282;28;20217;-64
2023/04/07 11:32:20;;;;;;;4.03;0.90;;;11.50;99.90;;;;;;5096602;28;20079;-63
2023/04/07 11:34:51;;;;;;;2.58;0.98;;;11.50;99.90;;;;;;5106758;28;20039;-63
2023/04/07 11:37:17;;;;;;;4.97;1.00;;;11.60;99.90;;;;;;5116828;28;20040;-63
2023/04/07 11:39:46;;;;;;;3.75;1.00;;;11.70;99.90;;;;;;5116894;28;20420;-63
2023/04/07 11:42:13;;;;;;;4.20;1.05;;;11.80;99.90;;;;;;5116763;28;20143;-64
2023/04/07 11:44:39;;;;;;;2.72;1.00;;;11.90;99.90;;;;;;5116604;28;20045;-64
2023/04/07 11:47:06;;;;;;;3.97;1.00;;;12.00;99.90;;;;;;5116605;28;20096;-63
2023/04/07 11:49:33;;;;;;;2.85;1.00;;;12.10;99.90;;;;;;5115430;28;20099;-63
2023/04/07 11:52:00;;;;;;;2.72;0.88;;;12.10;99.90;;;;;;5116475;28;20565;-63
2023/04/07 11:54:27;;;;;;;2.92;1.10;;;12.00;99.90;;;;;;5115370;28;20040;-63
2023/04/07 11:56:54;;;;;;;4.68;1.00;;;12.10;99.30;;;;;;5116419;28;20048;-63
2023/04/07 11:59:21;;;;;;;4.18;1.17;;;12.10;99.90;;;;;;5116129;28;20048;-64
2023/04/07 12:01:49;;;;;;;3.28;1.23;;;12.10;99.90;;;;;;5116399;28;20046;-63
2023/04/07 12:04:16;;;;;;;4.57;1.00;;;12.20;99.70;;;;;;5116172;28;20470;-63
2023/04/07 12:06:43;;;;;;;3.17;1.13;;;12.30;99.20;;;;;;5116386;27;20474;-63
2023/04/07 12:09:09;;;;;;;4.13;1.20;;;12.30;98.90;;;;;;5114850;28;20048;-63
2023/04/07 12:11:36;;;;;;;2.88;0.90;;;12.30;99.10;;;;;;5115911;28;20108;-63
2023/04/07 12:14:04;;;;;;;2.58;0.90;;;12.30;98.40;;;;;;5116187;28;20044;-63
2023/04/07 12:16:31;;;;;;;2.63;0.98;;;12.30;98.70;;;;;;5116113;28;20467;-63
2023/04/07 12:18:57;;;;;;;5.90;1.23;;;12.30;98.70;;;;;;5115764;28;20036;-63
2023/04/07 12:21:25;;;;;;;5.32;1.20;;;12.40;98.20;;;;;;5115921;28;20036;-63
2023/04/07 12:23:52;;;;;;;4.43;1.00;;;12.50;98.70;;;;;;5116013;28;20042;-63
2023/04/07 12:26:19;;;;;;;4.43;1.17;;;12.40;98.50;;;;;;5115463;28;20039;-63
2023/04/07 12:28:48;;;;;;;5.32;1.20;;;12.40;98.10;;;;;;5115532;28;20088;-63
2023/04/07 12:31:15;;;;;;;3.22;0.93;;;12.40;98.00;;;;;;5115825;28;20348;-62
2023/04/07 12:33:42;;;;;;;4.20;1.25;;;12.40;97.00;;;;;;5115352;28;20039;-63
2023/04/07 12:36:09;;;;;;;2.40;0.80;;;12.30;96.10;;;;;;5106022;28;20126;-63
2023/04/07 12:38:35;;;;;;;5.32;1.30;;;12.30;95.50;;;;;;5095256;28;20043;-63
2023/04/07 12:41:02;;;;;;;2.85;1.00;;;12.40;95.90;;;;;;5095072;28;20048;-62
2023/04/07 12:43:29;;;;;;;2.50;0.88;;;12.50;97.40;;;;;;5094834;28;20044;-63
2023/04/07 12:45:56;;;;;;;3.38;1.48;;;12.60;97.30;;;;;;5095341;28;20077;-62
2023/04/07 12:48:23;;;;;;;2.75;0.90;;;12.50;97.30;;;;;;5094906;28;20426;-63
2023/04/07 12:50:50;;;;;;;2.00;0.60;;;12.60;95.60;;;;;;5094750;28;20071;-63
2023/04/07 12:53:18;;;;;;;2.85;0.63;;;12.60;91.80;;;;;;5095291;28;20048;-63